sensor_id;sensor_type;location;lat;lon;timestamp;temperature;humidity
14283;DHT22;7225;59.282;18.344;2022-08-24T00:01:59;16.10;99.90
14283;DHT22;7225;59.282;18.344;2022-08-24T00:04:28;16.10;99.90
14283;DHT22;7225;59.282;18.344;2022-08-24T00:06:59;16.00;99.90
14283;DHT22;7225;59.282;18.344;2022-08-24T00:09:29;16.00;99.90
14283;DHT22;7225;59.282;18.344;2022-08-24T00:11:56;15.90;99.90
14283;DHT22;7225;59.282;18.344;2022-08-24T00:14:25;15.90;99.90
14283;DHT22;7225;59.282;18.344;2022-08-24T00:16:53;15.90;99.90
14283;DHT22;7225;59.282;18.344;2022-08-24T00:19:21;15.90;99.90
14283;DHT22;7225;59.282;18.344;2022-08-24T00:21:49;15.90;99.90
14283;DHT22;7225;59.282;18.344;2022-08-24T00:24:18;15.80;99.90
14283;DHT22;7225;59.282;18.344;2022-08-24T00:26:46;15.80;99.90
14283;DHT22;7225;59.282;18.344;2022-08-24T00:29:16;15.80;99.90
14283;DHT22;7225;59.282;18.344;2022-08-24T00:31:44;15.80;99.90
14283;DHT22;7225;59.282;18.344;2022-08-24T00:34:12;15.70;99.90
14283;DHT22;7225;59.282;18.344;2022-08-24T00:36:41;15.70;99.90
14283;DHT22;7225;59.282;18.344;2022-08-24T00:39:08;15.60;99.90
14283;DHT22;7225;59.282;18.344;2022-08-24T00:41:39;15.50;99.90
14283;DHT22;7225;59.282;18.344;2022-08-24T00:44:09;15.50;99.90
14283;DHT22;7225;59.282;18.344;2022-08-24T00:46:45;15.50;99.90
14283;DHT22;7225;59.282;18.344;2022-08-24T00:49:34;15.40;99.90
14283;DHT22;7225;59.282;18.344;2022-08-24T00:52:19;15.40;99.90
14283;DHT22;7225;59.282;18.344;2022-08-24T00:54:54;15.40;99.90
14283;DHT22;7225;59.282;18.344;2022-08-24T00:57:32;15.40;99.90
14283;DHT22;7225;59.282;18.344;2022-08-24T01:00:07;15.30;99.90
14283;DHT22;7225;59.282;18.344;2022-08-24T01:02:38;15.30;99.90
14283;DHT22;7225;59.282;18.344;2022-08-24T01:05:10;15.30;99.90
14283;DHT22;7225;59.282;18.344;2022-08-24T01:07:38;15.30;99.90
14283;DHT22;7225;59.282;18.344;2022-08-24T01:10:11;15.20;99.90
14283;DHT22;7225;59.282;18.344;2022-08-24T01:12:43;15.20;99.90
14283;DHT22;7225;59.282;18.344;2022-08-24T01:15:28;15.20;99.90
14283;DHT22;7225;59.282;18.344;2022-08-24T01:17:56;15.20;99.90
14283;DHT22;7225;59.282;18.344;2022-08-24T01:20:46;15.20;99.90
14283;DHT22;7225;59.282;18.344;2022-08-24T01:23:41;15.20;99.90
14283;DHT22;7225;59.282;18.344;2022-08-24T01:26:16;15.10;99.90
14283;DHT22;7225;59.282;18.344;2022-08-24T01:28:49;15.10;99.90
14283;DHT22;7225;59.282;18.344;2022-08-24T01:31:20;15.10;99.90
14283;DHT22;7225;59.282;18.344;2022-08-24T01:33:52;15.00;99.90
14283;DHT22;7225;59.282;18.344;2022-08-24T01:36:39;15.00;99.90
14283;DHT22;7225;59.282;18.344;2022-08-24T01:39:13;15.00;99.90
14283;DHT22;7225;59.282;18.344;2022-08-24T01:41:42;15.00;99.90
14283;DHT22;7225;59.282;18.344;2022-08-24T01:44:09;14.90;99.90
14283;DHT22;7225;59.282;18.344;2022-08-24T01:46:37;15.00;99.90
14283;DHT22;7225;59.282;18.344;2022-08-24T01:49:04;14.90;99.90
14283;DHT22;7225;59.282;18.344;2022-08-24T01:51:33;14.80;99.90
14283;DHT22;7225;59.282;18.344;2022-08-24T01:54:03;14.80;99.90
14283;DHT22;7225;59.282;18.344;2022-08-24T01:56:32;14.80;99.90
14283;DHT22;7225;59.282;18.344;2022-08-24T01:59:00;14.80;99.90
14283;DHT22;7225;59.282;18.344;2022-08-24T02:01:29;14.80;99.90
14283;DHT22;7225;59.282;18.344;2022-08-24T02:03:59;14.80;99.90
14283;DHT22;7225;59.282;18.344;2022-08-24T02:06:28;14.70;99.90
14283;DHT22;7225;59.282;18.344;2022-08-24T02:08:56;14.60;99.90
14283;DHT22;7225;59.282;18.344;2022-08-24T02:11:25;14.60;99.90
14283;DHT22;7225;59.282;18.344;2022-08-24T02:13:53;14.60;99.90
14283;DHT22;7225;59.282;18.344;2022-08-24T02:16:21;14.60;99.90
14283;DHT22;7225;59.282;18.344;2022-08-24T02:18:49;14.50;99.90
14283;DHT22;7225;59.282;18.344;2022-08-24T02:21:17;14.50;99.90
14283;DHT22;7225;59.282;18.344;2022-08-24T02:23:45;14.40;99.90
14283;DHT22;7225;59.282;18.344;2022-08-24T02:26:13;14.40;99.90
14283;DHT22;7225;59.282;18.344;2022-08-24T02:28:40;14.40;99.90
14283;DHT22;7225;59.282;18.344;2022-08-24T02:31:11;14.40;99.90
14283;DHT22;7225;59.282;18.344;2022-08-24T02:33:40;14.30;99.90
14283;DHT22;7225;59.282;18.344;2022-08-24T02:36:10;14.30;99.90
14283;DHT22;7225;59.282;18.344;2022-08-24T02:38:53;14.30;99.90
14283;DHT22;7225;59.282;18.344;2022-08-24T02:41:21;14.20;99.90
14283;DHT22;7225;59.282;18.344;2022-08-24T02:43:53;14.20;99.90
14283;DHT22;7225;59.282;18.344;2022-08-24T02:46:27;14.20;99.90
14283;DHT22;7225;59.282;18.344;2022-08-24T02:48:57;14.10;99.90
14283;DHT22;7225;59.282;18.344;2022-08-24T02:51:41;14.10;99.90
14283;DHT22;7225;59.282;18.344;2022-08-24T02:54:13;14.10;99.90
14283;DHT22;7225;59.282;18.344;2022-08-24T02:56:45;14.00;99.90
14283;DHT22;7225;59.282;18.344;2022-08-24T02:59:14;14.10;99.90
14283;DHT22;7225;59.282;18.344;2022-08-24T03:01:43;14.10;99.90
14283;DHT22;7225;59.282;18.344;2022-08-24T03:04:11;14.10;99.90
14283;DHT22;7225;59.282;18.344;2022-08-24T03:06:38;14.10;99.90
14283;DHT22;7225;59.282;18.344;2022-08-24T03:09:06;14.10;99.90
14283;DHT22;7225;59.282;18.344;2022-08-24T03:11:33;14.00;99.90
14283;DHT22;7225;59.282;18.344;2022-08-24T03:14:01;14.00;99.90
14283;DHT22;7225;59.282;18.344;2022-08-24T03:16:29;14.00;99.90
14283;DHT22;7225;59.282;18.344;2022-08-24T03:18:57;14.00;99.90
14283;DHT22;7225;59.282;18.344;2022-08-24T03:21:25;14.00;99.90
14283;DHT22;7225;59.282;18.344;2022-08-24T03:23:52;14.00;99.90
14283;DHT22;7225;59.282;18.344;2022-08-24T03:26:20;14.00;99.90
14283;DHT22;7225;59.282;18.344;2022-08-24T03:28:50;13.90;99.90
14283;DHT22;7225;59.282;18.344;2022-08-24T03:31:18;13.90;99.90
14283;DHT22;7225;59.282;18.344;2022-08-24T03:33:46;13.90;99.90
14283;DHT22;7225;59.282;18.344;2022-08-24T03:36:13;14.00;99.90
14283;DHT22;7225;59.282;18.344;2022-08-24T03:38:42;13.90;99.90
14283;DHT22;7225;59.282;18.344;2022-08-24T03:41:10;13.90;99.90
14283;DHT22;7225;59.282;18.344;2022-08-24T03:43:39;13.80;99.90
14283;DHT22;7225;59.282;18.344;2022-08-24T03:46:23;13.80;99.90
14283;DHT22;7225;59.282;18.344;2022-08-24T03:48:53;13.70;99.90
14283;DHT22;7225;59.282;18.344;2022-08-24T03:51:26;13.70;99.90
14283;DHT22;7225;59.282;18.344;2022-08-24T03:53:54;13.80;99.90
14283;DHT22;7225;59.282;18.344;2022-08-24T03:56:22;13.80;99.90
14283;DHT22;7225;59.282;18.344;2022-08-24T03:58:49;13.80;99.90
14283;DHT22;7225;59.282;18.344;2022-08-24T04:01:17;13.70;99.90
14283;DHT22;7225;59.282;18.344;2022-08-24T04:03:47;13.70;99.90
14283;DHT22;7225;59.282;18.344;2022-08-24T04:06:17;13.70;99.90
14283;DHT22;7225;59.282;18.344;2022-08-24T04:08:45;13.70;99.90
14283;DHT22;7225;59.282;18.344;2022-08-24T04:11:15;13.70;99.90
14283;DHT22;7225;59.282;18.344;2022-08-24T04:13:45;13.70;99.90
14283;DHT22;7225;59.282;18.344;2022-08-24T04:16:15;13.70;99.90
14283;DHT22;7225;59.282;18.344;2022-08-24T04:18:43;13.70;99.90
14283;DHT22;7225;59.282;18.344;2022-08-24T04:21:27;13.70;99.90
14283;DHT22;7225;59.282;18.344;2022-08-24T04:23:55;13.70;99.90
14283;DHT22;7225;59.282;18.344;2022-08-24T04:26:25;13.70;99.90
14283;DHT22;7225;59.282;18.344;2022-08-24T04:29:12;13.70;99.90
14283;DHT22;7225;59.282;18.344;2022-08-24T04:31:41;13.70;99.90
14283;DHT22;7225;59.282;18.344;2022-08-24T04:34:10;13.80;99.90
14283;DHT22;7225;59.282;18.344;2022-08-24T04:36:42;13.80;99.90
14283;DHT22;7225;59.282;18.344;2022-08-24T04:39:11;13.90;99.90
14283;DHT22;7225;59.282;18.344;2022-08-24T04:41:40;13.90;99.90
14283;DHT22;7225;59.282;18.344;2022-08-24T04:44:08;13.90;99.90
14283;DHT22;7225;59.282;18.344;2022-08-24T04:46:35;13.90;99.90
14283;DHT22;7225;59.282;18.344;2022-08-24T04:49:02;13.90;99.90
14283;DHT22;7225;59.282;18.344;2022-08-24T04:51:30;13.90;99.90
14283;DHT22;7225;59.282;18.344;2022-08-24T04:54:03;14.00;99.90
14283;DHT22;7225;59.282;18.344;2022-08-24T04:56:31;14.10;99.90
14283;DHT22;7225;59.282;18.344;2022-08-24T04:59:00;14.10;99.90
14283;DHT22;7225;59.282;18.344;2022-08-24T05:01:29;14.10;99.90
14283;DHT22;7225;59.282;18.344;2022-08-24T05:03:59;14.10;99.90
14283;DHT22;7225;59.282;18.344;2022-08-24T05:06:28;14.20;99.90
14283;DHT22;7225;59.282;18.344;2022-08-24T05:08:58;14.20;99.90
14283;DHT22;7225;59.282;18.344;2022-08-24T05:11:28;14.30;99.90
14283;DHT22;7225;59.282;18.344;2022-08-24T05:13:58;14.30;99.90
14283;DHT22;7225;59.282;18.344;2022-08-24T05:16:25;14.30;99.90
14283;DHT22;7225;59.282;18.344;2022-08-24T05:18:54;14.40;99.90
14283;DHT22;7225;59.282;18.344;2022-08-24T05:21:24;14.40;99.90
14283;DHT22;7225;59.282;18.344;2022-08-24T05:23:53;14.50;99.90
14283;DHT22;7225;59.282;18.344;2022-08-24T05:26:23;14.50;99.90
14283;DHT22;7225;59.282;18.344;2022-08-24T05:28:53;14.50;99.90
14283;DHT22;7225;59.282;18.344;2022-08-24T05:31:23;14.60;99.90
14283;DHT22;7225;59.282;18.344;2022-08-24T05:33:52;14.60;99.90
14283;DHT22;7225;59.282;18.344;2022-08-24T05:36:24;14.70;99.90
14283;DHT22;7225;59.282;18.344;2022-08-24T05:38:54;14.70;99.90
14283;DHT22;7225;59.282;18.344;2022-08-24T05:41:22;14.80;99.90
14283;DHT22;7225;59.282;18.344;2022-08-24T05:43:50;14.80;99.90
14283;DHT22;7225;59.282;18.344;2022-08-24T05:46:19;14.90;99.90
14283;DHT22;7225;59.282;18.344;2022-08-24T05:48:48;14.90;99.90
14283;DHT22;7225;59.282;18.344;2022-08-24T05:51:19;15.00;99.90
14283;DHT22;7225;59.282;18.344;2022-08-24T05:53:49;15.00;99.90
14283;DHT22;7225;59.282;18.344;2022-08-24T05:56:19;15.10;99.90
14283;DHT22;7225;59.282;18.344;2022-08-24T05:58:48;15.10;99.90
14283;DHT22;7225;59.282;18.344;2022-08-24T06:01:21;15.20;99.90
14283;DHT22;7225;59.282;18.344;2022-08-24T06:03:52;15.20;99.90
14283;DHT22;7225;59.282;18.344;2022-08-24T06:06:22;15.30;99.90
14283;DHT22;7225;59.282;18.344;2022-08-24T06:08:51;15.30;99.90
14283;DHT22;7225;59.282;18.344;2022-08-24T06:11:23;15.40;99.90
14283;DHT22;7225;59.282;18.344;2022-08-24T06:14:05;15.40;99.90
14283;DHT22;7225;59.282;18.344;2022-08-24T06:16:35;15.50;99.90
14283;DHT22;7225;59.282;18.344;2022-08-24T06:19:05;15.50;99.90
14283;DHT22;7225;59.282;18.344;2022-08-24T06:21:33;15.60;99.90
14283;DHT22;7225;59.282;18.344;2022-08-24T06:24:01;15.70;99.90
14283;DHT22;7225;59.282;18.344;2022-08-24T06:26:30;15.70;99.90
14283;DHT22;7225;59.282;18.344;2022-08-24T06:29:18;15.80;99.90
14283;DHT22;7225;59.282;18.344;2022-08-24T06:31:48;15.80;99.90
14283;DHT22;7225;59.282;18.344;2022-08-24T06:34:23;15.90;99.90
14283;DHT22;7225;59.282;18.344;2022-08-24T06:36:53;15.90;99.90
14283;DHT22;7225;59.282;18.344;2022-08-24T06:39:20;16.10;99.90
14283;DHT22;7225;59.282;18.344;2022-08-24T06:41:48;16.10;99.90
14283;DHT22;7225;59.282;18.344;2022-08-24T06:44:16;16.20;99.90
14283;DHT22;7225;59.282;18.344;2022-08-24T06:46:43;16.20;99.90
14283;DHT22;7225;59.282;18.344;2022-08-24T06:49:14;16.30;99.90
14283;DHT22;7225;59.282;18.344;2022-08-24T06:51:44;16.40;99.90
14283;DHT22;7225;59.282;18.344;2022-08-24T06:54:18;16.50;99.90
14283;DHT22;7225;59.282;18.344;2022-08-24T06:56:48;16.60;99.90
14283;DHT22;7225;59.282;18.344;2022-08-24T06:59:17;16.70;99.90
14283;DHT22;7225;59.282;18.344;2022-08-24T07:01:46;16.80;99.90
14283;DHT22;7225;59.282;18.344;2022-08-24T07:04:13;16.90;99.90
14283;DHT22;7225;59.282;18.344;2022-08-24T07:06:43;16.90;99.90
14283;DHT22;7225;59.282;18.344;2022-08-24T07:09:10;17.00;99.90
14283;DHT22;7225;59.282;18.344;2022-08-24T07:11:40;17.10;99.90
14283;DHT22;7225;59.282;18.344;2022-08-24T07:14:10;17.10;99.90
14283;DHT22;7225;59.282;18.344;2022-08-24T07:16:37;17.20;99.90
14283;DHT22;7225;59.282;18.344;2022-08-24T07:19:06;17.30;99.90
14283;DHT22;7225;59.282;18.344;2022-08-24T07:21:34;17.40;99.90
14283;DHT22;7225;59.282;18.344;2022-08-24T07:24:03;17.50;99.90
14283;DHT22;7225;59.282;18.344;2022-08-24T07:26:35;17.50;99.90
14283;DHT22;7225;59.282;18.344;2022-08-24T07:29:08;17.60;99.90
14283;DHT22;7225;59.282;18.344;2022-08-24T07:31:58;17.60;99.90
14283;DHT22;7225;59.282;18.344;2022-08-24T07:34:28;17.70;99.90
14283;DHT22;7225;59.282;18.344;2022-08-24T07:36:56;17.70;99.90
14283;DHT22;7225;59.282;18.344;2022-08-24T07:39:27;17.80;99.90
14283;DHT22;7225;59.282;18.344;2022-08-24T07:41:55;17.80;99.90
14283;DHT22;7225;59.282;18.344;2022-08-24T07:44:44;17.90;99.90
14283;DHT22;7225;59.282;18.344;2022-08-24T07:47:13;18.00;99.90
14283;DHT22;7225;59.282;18.344;2022-08-24T07:50:02;18.00;99.90
14283;DHT22;7225;59.282;18.344;2022-08-24T07:52:31;18.00;99.90
14283;DHT22;7225;59.282;18.344;2022-08-24T07:54:59;18.00;99.90
14283;DHT22;7225;59.282;18.344;2022-08-24T07:57:27;18.10;99.90
14283;DHT22;7225;59.282;18.344;2022-08-24T07:59:58;18.20;99.90
14283;DHT22;7225;59.282;18.344;2022-08-24T08:02:27;18.30;99.90
14283;DHT22;7225;59.282;18.344;2022-08-24T08:05:00;18.30;99.90
14283;DHT22;7225;59.282;18.344;2022-08-24T08:07:29;18.30;99.90
14283;DHT22;7225;59.282;18.344;2022-08-24T08:10:00;18.40;99.90
14283;DHT22;7225;59.282;18.344;2022-08-24T08:12:28;18.40;99.90
14283;DHT22;7225;59.282;18.344;2022-08-24T08:14:57;18.50;99.90
14283;DHT22;7225;59.282;18.344;2022-08-24T08:17:25;18.60;99.90
14283;DHT22;7225;59.282;18.344;2022-08-24T08:19:55;18.60;99.90
14283;DHT22;7225;59.282;18.344;2022-08-24T08:22:23;18.60;99.90
14283;DHT22;7225;59.282;18.344;2022-08-24T08:25:10;18.70;99.90
14283;DHT22;7225;59.282;18.344;2022-08-24T08:27:38;18.80;99.90
14283;DHT22;7225;59.282;18.344;2022-08-24T08:30:07;18.90;99.90
14283;DHT22;7225;59.282;18.344;2022-08-24T08:32:36;19.00;99.90
14283;DHT22;7225;59.282;18.344;2022-08-24T08:35:05;19.20;99.90
14283;DHT22;7225;59.282;18.344;2022-08-24T08:37:35;19.30;99.90
14283;DHT22;7225;59.282;18.344;2022-08-24T08:40:16;19.30;99.90
14283;DHT22;7225;59.282;18.344;2022-08-24T08:43:00;19.30;99.90
14283;DHT22;7225;59.282;18.344;2022-08-24T08:45:34;19.40;99.90
14283;DHT22;7225;59.282;18.344;2022-08-24T08:57:21;19.90;99.90
14283;DHT22;7225;59.282;18.344;2022-08-24T09:00:02;20.10;99.90
14283;DHT22;7225;59.282;18.344;2022-08-24T09:14:34;20.70;99.90
14283;DHT22;7225;59.282;18.344;2022-08-24T09:17:22;20.80;99.90
14283;DHT22;7225;59.282;18.344;2022-08-24T09:20:22;20.90;99.90
14283;DHT22;7225;59.282;18.344;2022-08-24T09:28:40;21.50;99.90
14283;DHT22;7225;59.282;18.344;2022-08-24T09:34:06;21.60;99.90
14283;DHT22;7225;59.282;18.344;2022-08-24T09:36:44;21.60;99.90
14283;DHT22;7225;59.282;18.344;2022-08-24T09:39:34;21.60;99.90
14283;DHT22;7225;59.282;18.344;2022-08-24T10:15:22;23.40;99.90
14283;DHT22;7225;59.282;18.344;2022-08-24T10:20:42;23.40;99.90
14283;DHT22;7225;59.282;18.344;2022-08-24T10:26:21;23.30;99.90
14283;DHT22;7225;59.282;18.344;2022-08-24T10:28:58;23.20;99.90
14283;DHT22;7225;59.282;18.344;2022-08-24T10:37:00;23.10;99.90
14283;DHT22;7225;59.282;18.344;2022-08-24T10:39:45;23.10;99.90
14283;DHT22;7225;59.282;18.344;2022-08-24T10:42:42;23.10;99.90
14283;DHT22;7225;59.282;18.344;2022-08-24T10:53:36;23.20;99.90
14283;DHT22;7225;59.282;18.344;2022-08-24T10:58:44;23.20;99.90
14283;DHT22;7225;59.282;18.344;2022-08-24T11:06:19;23.30;99.90
14283;DHT22;7225;59.282;18.344;2022-08-24T11:08:58;23.20;99.90
14283;DHT22;7225;59.282;18.344;2022-08-24T11:14:27;23.40;99.90
14283;DHT22;7225;59.282;18.344;2022-08-24T11:17:27;23.50;99.90
14283;DHT22;7225;59.282;18.344;2022-08-24T11:19:55;23.60;99.90
14283;DHT22;7225;59.282;18.344;2022-08-24T11:25:13;23.90;99.90
14283;DHT22;7225;59.282;18.344;2022-08-24T11:27:45;24.10;99.90
14283;DHT22;7225;59.282;18.344;2022-08-24T11:37:51;24.60;99.90
14283;DHT22;7225;59.282;18.344;2022-08-24T11:40:21;24.80;99.90
14283;DHT22;7225;59.282;18.344;2022-08-24T11:43:31;24.90;99.90
14283;DHT22;7225;59.282;18.344;2022-08-24T11:48:40;25.20;99.90
14283;DHT22;7225;59.282;18.344;2022-08-24T11:54:24;25.40;99.90
14283;DHT22;7225;59.282;18.344;2022-08-24T12:10:59;24.90;99.90
14283;DHT22;7225;59.282;18.344;2022-08-24T12:21:17;25.70;99.90
14283;DHT22;7225;59.282;18.344;2022-08-24T12:23:50;25.80;99.90
14283;DHT22;7225;59.282;18.344;2022-08-24T12:26:28;26.10;99.90
14283;DHT22;7225;59.282;18.344;2022-08-24T12:29:39;26.30;99.90
14283;DHT22;7225;59.282;18.344;2022-08-24T12:32:09;26.40;99.90
14283;DHT22;7225;59.282;18.344;2022-08-24T12:37:39;26.70;99.90
14283;DHT22;7225;59.282;18.344;2022-08-24T12:40:42;26.80;99.90
14283;DHT22;7225;59.282;18.344;2022-08-24T12:43:51;26.90;99.90
14283;DHT22;7225;59.282;18.344;2022-08-24T12:46:25;26.90;99.90
14283;DHT22;7225;59.282;18.344;2022-08-24T12:58:10;26.80;99.90
14283;DHT22;7225;59.282;18.344;2022-08-24T13:00:33;26.90;99.90
14283;DHT22;7225;59.282;18.344;2022-08-24T13:03:07;27.00;99.90
14283;DHT22;7225;59.282;18.344;2022-08-24T13:05:46;27.00;99.90
14283;DHT22;7225;59.282;18.344;2022-08-24T13:11:05;27.10;99.90
14283;DHT22;7225;59.282;18.344;2022-08-24T13:16:10;27.00;99.90
14283;DHT22;7225;59.282;18.344;2022-08-24T13:19:33;27.20;99.90
14283;DHT22;7225;59.282;18.344;2022-08-24T13:29:46;27.30;99.90
14283;DHT22;7225;59.282;18.344;2022-08-24T13:32:21;27.30;99.90
14283;DHT22;7225;59.282;18.344;2022-08-24T13:34:57;27.30;99.90
14283;DHT22;7225;59.282;18.344;2022-08-24T13:37:27;27.30;99.90
14283;DHT22;7225;59.282;18.344;2022-08-24T13:42:40;27.40;99.90
14283;DHT22;7225;59.282;18.344;2022-08-24T13:48:01;27.30;99.90
14283;DHT22;7225;59.282;18.344;2022-08-24T13:56:37;27.20;99.90
14283;DHT22;7225;59.282;18.344;2022-08-24T14:05:12;27.30;99.90
14283;DHT22;7225;59.282;18.344;2022-08-24T14:19:10;27.60;99.90
14283;DHT22;7225;59.282;18.344;2022-08-24T14:22:13;27.90;99.90
14283;DHT22;7225;59.282;18.344;2022-08-24T14:35:32;28.00;99.90
14283;DHT22;7225;59.282;18.344;2022-08-24T14:41:29;28.10;99.90
14283;DHT22;7225;59.282;18.344;2022-08-24T14:46:59;28.00;99.90
14283;DHT22;7225;59.282;18.344;2022-08-24T14:49:43;28.00;99.90
14283;DHT22;7225;59.282;18.344;2022-08-24T15:00:18;27.70;99.90
14283;DHT22;7225;59.282;18.344;2022-08-24T15:07:56;27.30;99.90
14283;DHT22;7225;59.282;18.344;2022-08-24T15:10:32;27.30;99.90
14283;DHT22;7225;59.282;18.344;2022-08-24T15:13:11;27.40;99.90
14283;DHT22;7225;59.282;18.344;2022-08-24T15:16:07;27.40;99.90
14283;DHT22;7225;59.282;18.344;2022-08-24T15:18:49;27.40;99.90
14283;DHT22;7225;59.282;18.344;2022-08-24T15:21:39;27.30;99.90
14283;DHT22;7225;59.282;18.344;2022-08-24T15:26:51;27.10;99.90
14283;DHT22;7225;59.282;18.344;2022-08-24T15:29:27;26.90;99.90
14283;DHT22;7225;59.282;18.344;2022-08-24T15:32:07;26.90;99.90
14283;DHT22;7225;59.282;18.344;2022-08-24T15:34:51;26.90;99.90
14283;DHT22;7225;59.282;18.344;2022-08-24T15:37:31;26.80;99.90
14283;DHT22;7225;59.282;18.344;2022-08-24T15:40:03;26.50;99.90
14283;DHT22;7225;59.282;18.344;2022-08-24T15:42:34;26.30;99.90
14283;DHT22;7225;59.282;18.344;2022-08-24T15:45:03;26.10;99.90
14283;DHT22;7225;59.282;18.344;2022-08-24T15:47:35;26.00;99.90
14283;DHT22;7225;59.282;18.344;2022-08-24T15:50:26;25.80;99.90
14283;DHT22;7225;59.282;18.344;2022-08-24T15:55:43;25.40;99.90
14283;DHT22;7225;59.282;18.344;2022-08-24T16:04:03;24.90;99.90
14283;DHT22;7225;59.282;18.344;2022-08-24T16:09:34;24.70;99.90
14283;DHT22;7225;59.282;18.344;2022-08-24T16:12:13;24.50;99.90
14283;DHT22;7225;59.282;18.344;2022-08-24T16:14:47;24.40;99.90
14283;DHT22;7225;59.282;18.344;2022-08-24T16:17:27;24.30;99.90
14283;DHT22;7225;59.282;18.344;2022-08-24T16:19:59;24.10;99.90
14283;DHT22;7225;59.282;18.344;2022-08-24T16:22:34;24.00;99.90
14283;DHT22;7225;59.282;18.344;2022-08-24T16:25:25;23.90;99.90
14283;DHT22;7225;59.282;18.344;2022-08-24T16:30:45;23.60;99.90
14283;DHT22;7225;59.282;18.344;2022-08-24T16:35:58;23.30;99.90
14283;DHT22;7225;59.282;18.344;2022-08-24T16:38:31;23.20;99.90
14283;DHT22;7225;59.282;18.344;2022-08-24T16:41:03;23.10;99.90
14283;DHT22;7225;59.282;18.344;2022-08-24T16:43:34;23.00;99.90
14283;DHT22;7225;59.282;18.344;2022-08-24T16:46:06;22.80;99.90
14283;DHT22;7225;59.282;18.344;2022-08-24T16:48:34;22.80;99.90
14283;DHT22;7225;59.282;18.344;2022-08-24T16:51:03;22.60;99.90
14283;DHT22;7225;59.282;18.344;2022-08-24T16:53:32;22.60;99.90
14283;DHT22;7225;59.282;18.344;2022-08-24T16:55:59;22.50;99.90
14283;DHT22;7225;59.282;18.344;2022-08-24T16:58:30;22.40;99.90
14283;DHT22;7225;59.282;18.344;2022-08-24T17:01:00;22.30;99.90
14283;DHT22;7225;59.282;18.344;2022-08-24T17:03:29;22.20;99.90
14283;DHT22;7225;59.282;18.344;2022-08-24T17:05:58;22.10;99.90
14283;DHT22;7225;59.282;18.344;2022-08-24T17:08:28;22.10;99.90
14283;DHT22;7225;59.282;18.344;2022-08-24T17:10:56;22.10;99.90
14283;DHT22;7225;59.282;18.344;2022-08-24T17:13:23;22.10;99.90
14283;DHT22;7225;59.282;18.344;2022-08-24T17:16:11;22.10;99.90
14283;DHT22;7225;59.282;18.344;2022-08-24T17:18:39;22.00;99.90
14283;DHT22;7225;59.282;18.344;2022-08-24T17:21:08;21.90;99.90
14283;DHT22;7225;59.282;18.344;2022-08-24T17:23:39;21.90;99.90
14283;DHT22;7225;59.282;18.344;2022-08-24T17:26:10;21.90;99.90
14283;DHT22;7225;59.282;18.344;2022-08-24T17:37:59;21.70;99.90
14283;DHT22;7225;59.282;18.344;2022-08-24T17:40:29;21.60;99.90
14283;DHT22;7225;59.282;18.344;2022-08-24T17:46:12;21.50;99.90
14283;DHT22;7225;59.282;18.344;2022-08-24T17:48:43;21.50;99.90
14283;DHT22;7225;59.282;18.344;2022-08-24T17:51:13;21.40;99.90
14283;DHT22;7225;59.282;18.344;2022-08-24T17:53:41;21.30;99.90
14283;DHT22;7225;59.282;18.344;2022-08-24T17:56:10;21.20;99.90
14283;DHT22;7225;59.282;18.344;2022-08-24T17:58:42;21.30;99.90
14283;DHT22;7225;59.282;18.344;2022-08-24T18:01:29;21.20;99.90
14283;DHT22;7225;59.282;18.344;2022-08-24T18:03:58;21.20;99.90
14283;DHT22;7225;59.282;18.344;2022-08-24T18:06:26;21.20;99.90
14283;DHT22;7225;59.282;18.344;2022-08-24T18:08:55;21.10;99.90
14283;DHT22;7225;59.282;18.344;2022-08-24T18:11:25;20.80;99.90
14283;DHT22;7225;59.282;18.344;2022-08-24T18:13:53;20.50;99.90
14283;DHT22;7225;59.282;18.344;2022-08-24T18:16:23;20.40;99.90
14283;DHT22;7225;59.282;18.344;2022-08-24T18:18:55;20.20;99.90
14283;DHT22;7225;59.282;18.344;2022-08-24T18:21:23;20.00;99.90
14283;DHT22;7225;59.282;18.344;2022-08-24T18:23:51;19.90;99.90
14283;DHT22;7225;59.282;18.344;2022-08-24T18:26:23;19.80;99.90
14283;DHT22;7225;59.282;18.344;2022-08-24T18:28:56;19.70;99.90
14283;DHT22;7225;59.282;18.344;2022-08-24T18:31:30;19.60;99.90
14283;DHT22;7225;59.282;18.344;2022-08-24T18:33:57;19.50;99.90
14283;DHT22;7225;59.282;18.344;2022-08-24T18:36:26;19.40;99.90
14283;DHT22;7225;59.282;18.344;2022-08-24T18:38:54;19.30;99.90
14283;DHT22;7225;59.282;18.344;2022-08-24T18:41:28;19.20;99.90
14283;DHT22;7225;59.282;18.344;2022-08-24T18:44:03;19.10;99.90
14283;DHT22;7225;59.282;18.344;2022-08-24T18:46:33;19.10;99.90
14283;DHT22;7225;59.282;18.344;2022-08-24T18:49:01;18.90;99.90
14283;DHT22;7225;59.282;18.344;2022-08-24T18:51:31;18.90;99.90
14283;DHT22;7225;59.282;18.344;2022-08-24T18:54:09;18.80;99.90
14283;DHT22;7225;59.282;18.344;2022-08-24T18:56:38;18.70;99.90
14283;DHT22;7225;59.282;18.344;2022-08-24T18:59:05;18.60;99.90
14283;DHT22;7225;59.282;18.344;2022-08-24T19:01:34;18.60;99.90
14283;DHT22;7225;59.282;18.344;2022-08-24T19:04:23;18.40;99.90
14283;DHT22;7225;59.282;18.344;2022-08-24T19:06:57;18.40;99.90
14283;DHT22;7225;59.282;18.344;2022-08-24T19:09:24;18.30;99.90
14283;DHT22;7225;59.282;18.344;2022-08-24T19:11:54;18.20;99.90
14283;DHT22;7225;59.282;18.344;2022-08-24T19:14:23;18.10;99.90
14283;DHT22;7225;59.282;18.344;2022-08-24T19:16:51;18.10;99.90
14283;DHT22;7225;59.282;18.344;2022-08-24T19:19:21;18.00;99.90
14283;DHT22;7225;59.282;18.344;2022-08-24T19:21:50;17.90;99.90
14283;DHT22;7225;59.282;18.344;2022-08-24T19:24:23;17.90;99.90
14283;DHT22;7225;59.282;18.344;2022-08-24T19:26:53;17.80;99.90
14283;DHT22;7225;59.282;18.344;2022-08-24T19:29:23;17.70;99.90
14283;DHT22;7225;59.282;18.344;2022-08-24T19:32:15;17.70;99.90
14283;DHT22;7225;59.282;18.344;2022-08-24T19:34:52;17.60;99.90
14283;DHT22;7225;59.282;18.344;2022-08-24T19:37:22;17.50;99.90
14283;DHT22;7225;59.282;18.344;2022-08-24T19:39:51;17.50;99.90
14283;DHT22;7225;59.282;18.344;2022-08-24T19:42:20;17.40;99.90
14283;DHT22;7225;59.282;18.344;2022-08-24T19:44:48;17.40;99.90
14283;DHT22;7225;59.282;18.344;2022-08-24T19:47:35;17.40;99.90
14283;DHT22;7225;59.282;18.344;2022-08-24T19:50:04;17.30;99.90
14283;DHT22;7225;59.282;18.344;2022-08-24T19:52:36;17.20;99.90
14283;DHT22;7225;59.282;18.344;2022-08-24T19:55:05;17.10;99.90
14283;DHT22;7225;59.282;18.344;2022-08-24T20:02:48;16.90;99.90
14283;DHT22;7225;59.282;18.344;2022-08-24T20:05:19;16.90;99.90
14283;DHT22;7225;59.282;18.344;2022-08-24T20:07:48;16.80;99.90
14283;DHT22;7225;59.282;18.344;2022-08-24T20:10:20;16.80;99.90
14283;DHT22;7225;59.282;18.344;2022-08-24T20:12:48;16.70;99.90
14283;DHT22;7225;59.282;18.344;2022-08-24T20:15:17;16.70;99.90
14283;DHT22;7225;59.282;18.344;2022-08-24T20:17:47;16.60;99.90